sensor_id;sensor_type;location;lat;lon;timestamp;pressure;altitude;pressure_sealevel;temperature;humidity
10145;BME280;5113;41.822;23.564;2023-04-26T00:00:27;-11148.97;;;7.76;100.00
10145;BME280;5113;41.822;23.564;2023-04-26T00:03:34;-11160.78;;;8.19;100.00
10145;BME280;5113;41.822;23.564;2023-04-26T00:06:41;-11150.94;;;7.83;100.00
10145;BME280;5113;41.822;23.564;2023-04-26T00:09:47;-11158.25;;;8.10;100.00
10145;BME280;5113;41.822;23.564;2023-04-26T00:12:53;-11160.22;;;8.17;100.00
10145;BME280;5113;41.822;23.564;2023-04-26T00:16:01;-11160.50;;;8.18;100.00
10145;BME280;5113;41.822;23.564;2023-04-26T00:19:07;-11152.91;;;7.90;100.00
10145;BME280;5113;41.822;23.564;2023-04-26T00:22:15;-11161.47;;;8.21;100.00
10145;BME280;5113;41.822;23.564;2023-04-26T00:25:22;-11155.00;;;7.98;100.00
10145;BME280;5113;41.822;23.564;2023-04-26T00:28:28;-11156.69;;;8.04;100.00
10145;BME280;5113;41.822;23.564;2023-04-26T00:31:36;-11152.63;;;7.89;100.00
10145;BME280;5113;41.822;23.564;2023-04-26T00:34:43;-11152.91;;;7.90;100.00
10145;BME280;5113;41.822;23.564;2023-04-26T00:37:49;-11148.41;;;7.74;100.00
10145;BME280;5113;41.822;23.564;2023-04-26T00:40:55;-11152.06;;;7.87;100.00
10145;BME280;5113;41.822;23.564;2023-04-26T00:44:02;-11150.66;;;7.82;100.00
10145;BME280;5113;41.822;23.564;2023-04-26T00:47:10;-11149.81;;;7.79;100.00
10145;BME280;5113;41.822;23.564;2023-04-26T00:50:16;-11145.47;;;7.63;100.00
10145;BME280;5113;41.822;23.564;2023-04-26T00:53:22;-11146.00;;;7.66;100.00
10145;BME280;5113;41.822;23.564;2023-04-26T00:56:29;-11141.09;;;7.48;100.00
10145;BME280;5113;41.822;23.564;2023-04-26T00:59:36;-11140.53;;;7.46;100.00
10145;BME280;5113;41.822;23.564;2023-04-26T01:02:44;-11137.03;;;7.33;100.00
10145;BME280;5113;41.822;23.564;2023-04-26T01:05:50;-11123.97;;;6.86;100.00
10145;BME280;5113;41.822;23.564;2023-04-26T01:08:58;-11122.84;;;6.82;100.00
10145;BME280;5113;41.822;23.564;2023-04-26T01:12:06;-11133.09;;;7.19;100.00
10145;BME280;5113;41.822;23.564;2023-04-26T01:15:12;-11132.09;;;7.15;100.00
10145;BME280;5113;41.822;23.564;2023-04-26T01:18:20;-11132.25;;;7.16;100.00
10145;BME280;5113;41.822;23.564;2023-04-26T01:21:26;-11120.72;;;6.74;100.00
10145;BME280;5113;41.822;23.564;2023-04-26T01:24:34;-11125.38;;;6.91;100.00
10145;BME280;5113;41.822;23.564;2023-04-26T01:27:41;-11132.38;;;7.16;100.00
10145;BME280;5113;41.822;23.564;2023-04-26T01:30:47;-11128.31;;;7.02;100.00
10145;BME280;5113;41.822;23.564;2023-04-26T01:33:53;-11123.97;;;6.86;100.00
10145;BME280;5113;41.822;23.564;2023-04-26T01:36:59;-11130.69;;;7.10;100.00
10145;BME280;5113;41.822;23.564;2023-04-26T01:40:08;-11122.00;;;6.79;100.00
10145;BME280;5113;41.822;23.564;2023-04-26T01:43:15;-11128.59;;;7.03;100.00
10145;BME280;5113;41.822;23.564;2023-04-26T01:46:23;-11120.59;;;6.74;100.00
10145;BME280;5113;41.822;23.564;2023-04-26T01:49:29;-11123.81;;;6.85;100.00
10145;BME280;5113;41.822;23.564;2023-04-26T01:52:36;-11127.06;;;6.97;100.00
10145;BME280;5113;41.822;23.564;2023-04-26T01:55:43;-11126.78;;;6.96;100.00
10145;BME280;5113;41.822;23.564;2023-04-26T01:58:50;-11121.56;;;6.77;100.00
10145;BME280;5113;41.822;23.564;2023-04-26T02:01:56;-11115.25;;;6.54;100.00
10145;BME280;5113;41.822;23.564;2023-04-26T02:05:03;-11119.75;;;6.71;100.00
10145;BME280;5113;41.822;23.564;2023-04-26T02:08:10;-11120.59;;;6.74;100.00
10145;BME280;5113;41.822;23.564;2023-04-26T02:11:17;-11111.59;;;6.41;100.00
10145;BME280;5113;41.822;23.564;2023-04-26T02:14:23;-11118.34;;;6.66;100.00
10145;BME280;5113;41.822;23.564;2023-04-26T02:17:30;-11114.69;;;6.52;100.00
10145;BME280;5113;41.822;23.564;2023-04-26T02:20:36;-11122.56;;;6.81;100.00
10145;BME280;5113;41.822;23.564;2023-04-26T02:23:43;-11107.97;;;6.28;100.00
10145;BME280;5113;41.822;23.564;2023-04-26T02:26:50;-11116.09;;;6.57;100.00
10145;BME280;5113;41.822;23.564;2023-04-26T02:29:58;-11111.03;;;6.39;100.00
10145;BME280;5113;41.822;23.564;2023-04-26T02:33:04;-11117.22;;;6.61;100.00
10145;BME280;5113;41.822;23.564;2023-04-26T02:36:10;-11113.72;;;6.49;100.00
10145;BME280;5113;41.822;23.564;2023-04-26T02:39:16;-11111.59;;;6.41;100.00
10145;BME280;5113;41.822;23.564;2023-04-26T02:42:25;-11116.94;;;6.60;100.00
10145;BME280;5113;41.822;23.564;2023-04-26T02:45:31;-11117.22;;;6.61;100.00
10145;BME280;5113;41.822;23.564;2023-04-26T02:48:37;-11122.28;;;6.80;100.00
10145;BME280;5113;41.822;23.564;2023-04-26T02:51:43;-11122.69;;;6.81;100.00
10145;BME280;5113;41.822;23.564;2023-04-26T02:54:49;-11130.69;;;7.10;100.00
10145;BME280;5113;41.822;23.564;2023-04-26T02:57:57;-11129.44;;;7.06;100.00
10145;BME280;5113;41.822;23.564;2023-04-26T03:01:03;-11124.38;;;6.87;100.00
10145;BME280;5113;41.822;23.564;2023-04-26T03:04:10;-11130.84;;;7.11;100.00
10145;BME280;5113;41.822;23.564;2023-04-26T03:07:17;-11119.47;;;6.70;100.00
10145;BME280;5113;41.822;23.564;2023-04-26T03:10:23;-11125.66;;;6.92;100.00
10145;BME280;5113;41.822;23.564;2023-04-26T03:13:30;-11125.09;;;6.90;100.00
10145;BME280;5113;41.822;23.564;2023-04-26T03:16:40;-11129.16;;;7.05;100.00
10145;BME280;5113;41.822;23.564;2023-04-26T03:19:47;-11120.59;;;6.74;100.00
10145;BME280;5113;41.822;23.564;2023-04-26T03:22:54;-11125.50;;;6.91;100.00
10145;BME280;5113;41.822;23.564;2023-04-26T03:26:00;-11128.31;;;7.02;100.00
10145;BME280;5113;41.822;23.564;2023-04-26T03:29:09;-11127.75;;;7.00;100.00
10145;BME280;5113;41.822;23.564;2023-04-26T03:32:16;-11124.53;;;6.88;100.00
10145;BME280;5113;41.822;23.564;2023-04-26T03:35:22;-11120.88;;;6.75;100.00
10145;BME280;5113;41.822;23.564;2023-04-26T03:38:29;-11118.75;;;6.67;100.00
10145;BME280;5113;41.822;23.564;2023-04-26T03:41:35;-11112.16;;;6.43;100.00
10145;BME280;5113;41.822;23.564;2023-04-26T03:44:44;-11127.06;;;6.97;100.00
10145;BME280;5113;41.822;23.564;2023-04-26T03:47:51;-11128.19;;;7.01;100.00
10145;BME280;5113;41.822;23.564;2023-04-26T03:50:57;-11133.22;;;7.19;100.00
10145;BME280;5113;41.822;23.564;2023-04-26T03:54:03;-11122.69;;;6.81;100.00
10145;BME280;5113;41.822;23.564;2023-04-26T03:57:10;-11116.09;;;6.57;100.00
10145;BME280;5113;41.822;23.564;2023-04-26T04:00:17;-11115.25;;;6.54;100.00
10145;BME280;5113;41.822;23.564;2023-04-26T04:03:23;-11125.38;;;6.91;100.00
10145;BME280;5113;41.822;23.564;2023-04-26T04:06:30;-11135.19;;;7.26;100.00
10145;BME280;5113;41.822;23.564;2023-04-26T04:09:36;-11132.94;;;7.18;100.00
10145;BME280;5113;41.822;23.564;2023-04-26T04:12:42;-11136.03;;;7.29;100.00
10145;BME280;5113;41.822;23.564;2023-04-26T04:15:50;-11136.59;;;7.32;100.00
10145;BME280;5113;41.822;23.564;2023-04-26T04:18:56;-11134.22;;;7.23;100.00
10145;BME280;5113;41.822;23.564;2023-04-26T04:22:03;-11127.75;;;7.00;100.00
10145;BME280;5113;41.822;23.564;2023-04-26T04:25:09;-11133.50;;;7.20;100.00
10145;BME280;5113;41.822;23.564;2023-04-26T04:28:16;-11145.31;;;7.63;100.00
10145;BME280;5113;41.822;23.564;2023-04-26T04:31:23;-11144.63;;;7.60;100.00
10145;BME280;5113;41.822;23.564;2023-04-26T04:34:33;-11151.06;;;7.84;100.00
10145;BME280;5113;41.822;23.564;2023-04-26T04:37:39;-11156.56;;;8.04;100.00
10145;BME280;5113;41.822;23.564;2023-04-26T04:40:47;-11148.13;;;7.73;100.00
10145;BME280;5113;41.822;23.564;2023-04-26T04:43:54;-11150.66;;;7.82;100.00
10145;BME280;5113;41.822;23.564;2023-04-26T04:47:02;-11138.28;;;7.38;100.00
10145;BME280;5113;41.822;23.564;2023-04-26T04:50:09;-11134.34;;;7.23;100.00
10145;BME280;5113;41.822;23.564;2023-04-26T04:53:15;-11138.28;;;7.38;100.00
10145;BME280;5113;41.822;23.564;2023-04-26T04:56:22;-11143.62;;;7.57;100.00
10145;BME280;5113;41.822;23.564;2023-04-26T04:59:29;-11145.31;;;7.63;100.00
10145;BME280;5113;41.822;23.564;2023-04-26T05:02:38;-11136.31;;;7.31;100.00
10145;BME280;5113;41.822;23.564;2023-04-26T05:05:45;-11153.88;;;7.94;100.00
10145;BME280;5113;41.822;23.564;2023-04-26T05:08:51;-11160.22;;;8.17;100.00
10145;BME280;5113;41.822;23.564;2023-04-26T05:11:57;-11163.88;;;8.30;100.00
10145;BME280;5113;41.822;23.564;2023-04-26T05:15:04;-11155.84;;;8.01;100.00
10145;BME280;5113;41.822;23.564;2023-04-26T05:18:12;-11165.84;;;8.37;100.00
10145;BME280;5113;41.822;23.564;2023-04-26T05:21:18;-11169.22;;;8.49;100.00
10145;BME280;5113;41.822;23.564;2023-04-26T05:24:24;-11170.06;;;8.52;100.00
10145;BME280;5113;41.822;23.564;2023-04-26T05:27:30;-11171.59;;;8.58;100.00
10145;BME280;5113;41.822;23.564;2023-04-26T05:30:37;-11172.59;;;8.62;100.00
10145;BME280;5113;41.822;23.564;2023-04-26T05:33:44;-11170.06;;;8.52;100.00
10145;BME280;5113;41.822;23.564;2023-04-26T05:36:51;-11176.66;;;8.76;100.00
10145;BME280;5113;41.822;23.564;2023-04-26T05:39:57;-11172.03;;;8.59;100.00
10145;BME280;5113;41.822;23.564;2023-04-26T05:43:03;-11176.66;;;8.76;100.00
10145;BME280;5113;41.822;23.564;2023-04-26T05:46:09;-11179.75;;;8.87;100.00
10145;BME280;5113;41.822;23.564;2023-04-26T05:49:17;-11181.00;;;8.92;100.00
10145;BME280;5113;41.822;23.564;2023-04-26T05:52:23;-11185.09;;;9.07;100.00
10145;BME280;5113;41.822;23.564;2023-04-26T05:55:29;-11186.34;;;9.11;100.00
10145;BME280;5113;41.822;23.564;2023-04-26T05:58:36;-11177.50;;;8.79;100.00
10145;BME280;5113;41.822;23.564;2023-04-26T06:01:42;-11177.34;;;8.79;100.00
10145;BME280;5113;41.822;23.564;2023-04-26T06:04:50;-11182.69;;;8.98;100.00
10145;BME280;5113;41.822;23.564;2023-04-26T06:07:57;-11187.75;;;9.16;100.00
10145;BME280;5113;41.822;23.564;2023-04-26T06:11:05;-11191.13;;;9.28;100.00
10145;BME280;5113;41.822;23.564;2023-04-26T06:14:11;-11173.16;;;8.64;100.00
10145;BME280;5113;41.822;23.564;2023-04-26T06:17:34;-11184.66;;;9.05;100.00
10145;BME280;5113;41.822;23.564;2023-04-26T06:20:42;-11187.19;;;9.14;100.00
10145;BME280;5113;41.822;23.564;2023-04-26T06:23:48;-11186.78;;;9.13;100.00
10145;BME280;5113;41.822;23.564;2023-04-26T06:26:55;-11188.88;;;9.20;100.00
10145;BME280;5113;41.822;23.564;2023-04-26T06:30:01;-11185.50;;;9.08;100.00
10145;BME280;5113;41.822;23.564;2023-04-26T06:33:07;-11191.41;;;9.30;100.00
10145;BME280;5113;41.822;23.564;2023-04-26T06:36:15;-11191.84;;;9.31;100.00
10145;BME280;5113;41.822;23.564;2023-04-26T06:39:21;-11187.34;;;9.15;100.00
10145;BME280;5113;41.822;23.564;2023-04-26T06:42:27;-11182.97;;;8.99;100.00
10145;BME280;5113;41.822;23.564;2023-04-26T06:45:33;-11182.97;;;8.99;100.00
10145;BME280;5113;41.822;23.564;2023-04-26T06:48:39;-11179.19;;;8.85;100.00
10145;BME280;5113;41.822;23.564;2023-04-26T06:51:47;-11174.53;;;8.69;100.00
10145;BME280;5113;41.822;23.564;2023-04-26T06:54:53;-11182.56;;;8.98;100.00
10145;BME280;5113;41.822;23.564;2023-04-26T06:58:01;-11195.06;;;9.43;100.00
10145;BME280;5113;41.822;23.564;2023-04-26T07:01:07;-11210.25;;;9.98;100.00
10145;BME280;5113;41.822;23.564;2023-04-26T07:04:14;-11211.09;;;10.01;100.00
10145;BME280;5113;41.822;23.564;2023-04-26T07:07:23;-11217.00;;;10.22;100.00
10145;BME280;5113;41.822;23.564;2023-04-26T07:10:29;-11219.69;;;10.32;100.00
10145;BME280;5113;41.822;23.564;2023-04-26T07:13:37;-11220.94;;;10.36;100.00
10145;BME280;5113;41.822;23.564;2023-04-26T07:16:43;-11219.81;;;10.32;100.00
10145;BME280;5113;41.822;23.564;2023-04-26T07:19:50;-11199.44;;;9.58;100.00
10145;BME280;5113;41.822;23.564;2023-04-26T07:23:01;-11217.56;;;10.24;100.00
10145;BME280;5113;41.822;23.564;2023-04-26T07:26:09;-11198.03;;;9.53;100.00
10145;BME280;5113;41.822;23.564;2023-04-26T07:29:16;-11215.88;;;10.18;100.00
10145;BME280;5113;41.822;23.564;2023-04-26T07:32:22;-11220.94;;;10.36;100.00
10145;BME280;5113;41.822;23.564;2023-04-26T07:35:29;-11200.13;;;9.61;100.00
10145;BME280;5113;41.822;23.564;2023-04-26T07:38:37;-11193.53;;;9.37;100.00
10145;BME280;5113;41.822;23.564;2023-04-26T07:41:43;-11194.09;;;9.39;100.00
10145;BME280;5113;41.822;23.564;2023-04-26T07:44:49;-11205.63;;;9.81;100.00
10145;BME280;5113;41.822;23.564;2023-04-26T07:47:56;-11207.72;;;9.88;100.00
10145;BME280;5113;41.822;23.564;2023-04-26T07:51:09;-11202.38;;;9.69;100.00
10145;BME280;5113;41.822;23.564;2023-04-26T07:54:17;-11210.81;;;10.00;100.00
10145;BME280;5113;41.822;23.564;2023-04-26T07:57:24;-11215.03;;;10.15;100.00
10145;BME280;5113;41.822;23.564;2023-04-26T08:00:30;-11200.56;;;9.63;100.00
10145;BME280;5113;41.822;23.564;2023-04-26T08:03:37;-11201.41;;;9.66;100.00
10145;BME280;5113;41.822;23.564;2023-04-26T08:06:45;-11207.44;;;9.87;100.00
10145;BME280;5113;41.822;23.564;2023-04-26T08:09:53;-11212.94;;;10.07;100.00
10145;BME280;5113;41.822;23.564;2023-04-26T08:13:00;-11213.06;;;10.08;100.00
10145;BME280;5113;41.822;23.564;2023-04-26T08:16:07;-11213.91;;;10.11;100.00
10145;BME280;5113;41.822;23.564;2023-04-26T08:19:13;-11224.59;;;10.49;100.00
10145;BME280;5113;41.822;23.564;2023-04-26T08:22:20;-11243.03;;;11.16;100.00
10145;BME280;5113;41.822;23.564;2023-04-26T08:25:28;-11237.13;;;10.95;100.00
10145;BME280;5113;41.822;23.564;2023-04-26T08:28:34;-11252.19;;;11.49;100.00
10145;BME280;5113;41.822;23.564;2023-04-26T08:31:40;-11244.16;;;11.20;100.00
10145;BME280;5113;41.822;23.564;2023-04-26T08:34:47;-11224.88;;;10.50;100.00
10145;BME280;5113;41.822;23.564;2023-04-26T08:37:54;-11236.72;;;10.93;100.00
10145;BME280;5113;41.822;23.564;2023-04-26T08:41:01;-11251.06;;;11.45;100.00
10145;BME280;5113;41.822;23.564;2023-04-26T08:44:09;-11251.34;;;11.46;100.00
10145;BME280;5113;41.822;23.564;2023-04-26T08:47:17;-11245.56;;;11.25;100.00
10145;BME280;5113;41.822;23.564;2023-04-26T08:50:24;-11245.72;;;11.25;100.00
10145;BME280;5113;41.822;23.564;2023-04-26T08:53:32;-11264.72;;;11.94;100.00
10145;BME280;5113;41.822;23.564;2023-04-26T08:56:41;-11233.59;;;10.82;100.00
10145;BME280;5113;41.822;23.564;2023-04-26T08:59:48;-11234.03;;;10.83;100.00
10145;BME280;5113;41.822;23.564;2023-04-26T09:02:55;-11239.09;;;11.02;100.00
10145;BME280;5113;41.822;23.564;2023-04-26T09:06:01;-11240.34;;;11.06;100.00
10145;BME280;5113;41.822;23.564;2023-04-26T09:09:09;-11247.13;;;11.31;100.00
10145;BME280;5113;41.822;23.564;2023-04-26T09:12:19;-11241.63;;;11.11;100.00
10145;BME280;5113;41.822;23.564;2023-04-26T09:15:26;-11239.22;;;11.02;100.00
10145;BME280;5113;41.822;23.564;2023-04-26T09:18:32;-11231.91;;;10.76;100.00
10145;BME280;5113;41.822;23.564;2023-04-26T09:21:41;-11227.41;;;10.59;100.00
10145;BME280;5113;41.822;23.564;2023-04-26T09:24:49;-11223.91;;;10.47;100.00
10145;BME280;5113;41.822;23.564;2023-04-26T09:27:59;-11233.31;;;10.81;100.00
10145;BME280;5113;41.822;23.564;2023-04-26T09:31:05;-11230.66;;;10.71;100.00
10145;BME280;5113;41.822;23.564;2023-04-26T09:34:13;-11231.91;;;10.76;100.00
10145;BME280;5113;41.822;23.564;2023-04-26T09:37:19;-11241.63;;;11.11;100.00
10145;BME280;5113;41.822;23.564;2023-04-26T09:40:28;-11233.88;;;10.83;100.00
10145;BME280;5113;41.822;23.564;2023-04-26T09:43:38;-11261.75;;;11.83;100.00
10145;BME280;5113;41.822;23.564;2023-04-26T09:46:56;-11238.94;;;11.01;100.00
10145;BME280;5113;41.822;23.564;2023-04-26T09:50:03;-11236.72;;;10.93;100.00
10145;BME280;5113;41.822;23.564;2023-04-26T09:53:09;-11268.22;;;12.07;100.00
10145;BME280;5113;41.822;23.564;2023-04-26T09:56:17;-11290.47;;;12.87;100.00
10145;BME280;5113;41.822;23.564;2023-04-26T09:59:38;-11261.47;;;11.82;100.00
10145;BME280;5113;41.822;23.564;2023-04-26T10:02:45;-11263.16;;;11.88;100.00
10145;BME280;5113;41.822;23.564;2023-04-26T10:05:53;-11269.34;;;12.11;100.00
10145;BME280;5113;41.822;23.564;2023-04-26T10:09:00;-11272.16;;;12.21;100.00
10145;BME280;5113;41.822;23.564;2023-04-26T10:12:10;-11277.50;;;12.40;100.00
10145;BME280;5113;41.822;23.564;2023-04-26T10:15:18;-11255.97;;;11.63;100.00
10145;BME280;5113;41.822;23.564;2023-04-26T10:18:24;-11298.91;;;13.17;100.00
10145;BME280;5113;41.822;23.564;2023-04-26T10:21:33;-11289.34;;;12.83;94.79
10145;BME280;5113;41.822;23.564;2023-04-26T10:24:43;-11289.47;;;12.83;95.25
10145;BME280;5113;41.822;23.564;2023-04-26T10:27:50;-11274.12;;;12.28;96.59
10145;BME280;5113;41.822;23.564;2023-04-26T10:30:59;-11267.09;;;12.03;93.68
10145;BME280;5113;41.822;23.564;2023-04-26T10:34:18;-11268.50;;;12.08;95.45
10145;BME280;5113;41.822;23.564;2023-04-26T10:37:24;-11295.25;;;13.04;93.44
10145;BME280;5113;41.822;23.564;2023-04-26T10:40:32;-11277.22;;;12.39;97.44
10145;BME280;5113;41.822;23.564;2023-04-26T10:43:39;-11305.53;;;13.41;96.78
10145;BME280;5113;41.822;23.564;2023-04-26T10:46:50;-11313.56;;;13.70;88.15
10145;BME280;5113;41.822;23.564;2023-04-26T10:50:04;-11303.69;;;13.35;92.58
10145;BME280;5113;41.822;23.564;2023-04-26T10:53:12;-11315.66;;;13.78;86.01
10145;BME280;5113;41.822;23.564;2023-04-26T10:56:51;-11303.28;;;13.33;83.25
10145;BME280;5113;41.822;23.564;2023-04-26T11:00:17;-11312.41;;;13.66;84.04
10145;BME280;5113;41.822;23.564;2023-04-26T11:03:29;-11281.16;;;12.53;93.32
10145;BME280;5113;41.822;23.564;2023-04-26T11:06:48;-11310.16;;;13.58;91.88
10145;BME280;5113;41.822;23.564;2023-04-26T11:09:55;-11302.56;;;13.31;92.20
10145;BME280;5113;41.822;23.564;2023-04-26T11:13:05;-11309.59;;;13.56;89.04
10145;BME280;5113;41.822;23.564;2023-04-26T11:16:13;-11310.31;;;13.59;90.27
10145;BME280;5113;41.822;23.564;2023-04-26T11:19:21;-11272.31;;;12.21;98.40
10145;BME280;5113;41.822;23.564;2023-04-26T11:22:27;-11303.97;;;13.36;94.94
10145;BME280;5113;41.822;23.564;2023-04-26T11:25:34;-11291.16;;;12.89;95.48
10145;BME280;5113;41.822;23.564;2023-04-26T11:28:40;-11269.50;;;12.11;97.15
10145;BME280;5113;41.822;23.564;2023-04-26T11:31:52;-11288.34;;;12.79;95.93
10145;BME280;5113;41.822;23.564;2023-04-26T11:35:00;-11279.34;;;12.47;91.22
10145;BME280;5113;41.822;23.564;2023-04-26T11:38:08;-11274.69;;;12.30;91.05
10145;BME280;5113;41.822;23.564;2023-04-26T11:41:14;-11281.16;;;12.53;89.13
10145;BME280;5113;41.822;23.564;2023-04-26T11:44:20;-11274.84;;;12.31;87.40
10145;BME280;5113;41.822;23.564;2023-04-26T11:47:27;-11278.78;;;12.45;84.13
10145;BME280;5113;41.822;23.564;2023-04-26T11:50:36;-11269.50;;;12.11;83.73
10145;BME280;5113;41.822;23.564;2023-04-26T11:53:43;-11286.09;;;12.71;84.18
10145;BME280;5113;41.822;23.564;2023-04-26T11:56:49;-11286.66;;;12.73;87.07
10145;BME280;5113;41.822;23.564;2023-04-26T12:00:06;-11262.31;;;11.85;87.41
10145;BME280;5113;41.822;23.564;2023-04-26T12:03:14;-11249.37;;;11.39;88.39
10145;BME280;5113;41.822;23.564;2023-04-26T12:06:28;-11240.91;;;11.08;92.08
10145;BME280;5113;41.822;23.564;2023-04-26T12:09:39;-11255.00;;;11.59;92.35
10145;BME280;5113;41.822;23.564;2023-04-26T12:12:47;-11273.44;;;12.26;91.92
10145;BME280;5113;41.822;23.564;2023-04-26T12:15:54;-11242.03;;;11.12;96.00
10145;BME280;5113;41.822;23.564;2023-04-26T12:19:04;-11243.75;;;11.18;95.39
10145;BME280;5113;41.822;23.564;2023-04-26T12:22:19;-11227.41;;;10.59;100.00
10145;BME280;5113;41.822;23.564;2023-04-26T12:25:26;-11220.09;;;10.33;100.00
10145;BME280;5113;41.822;23.564;2023-04-26T12:28:32;-11216.16;;;10.19;100.00
10145;BME280;5113;41.822;23.564;2023-04-26T12:31:38;-11237.28;;;10.95;100.00
10145;BME280;5113;41.822;23.564;2023-04-26T12:34:45;-11220.09;;;10.33;100.00
10145;BME280;5113;41.822;23.564;2023-04-26T12:37:53;-11212.50;;;10.06;100.00
10145;BME280;5113;41.822;23.564;2023-04-26T12:41:01;-11210.53;;;9.99;100.00
10145;BME280;5113;41.822;23.564;2023-04-26T12:44:07;-11201.69;;;9.67;100.00
10145;BME280;5113;41.822;23.564;2023-04-26T12:47:13;-11200.28;;;9.62;100.00
10145;BME280;5113;41.822;23.564;2023-04-26T12:50:20;-11195.91;;;9.46;100.00
10145;BME280;5113;41.822;23.564;2023-04-26T12:53:28;-11196.06;;;9.46;100.00
10145;BME280;5113;41.822;23.564;2023-04-26T12:56:34;-11194.09;;;9.39;100.00
10145;BME280;5113;41.822;23.564;2023-04-26T12:59:44;-11195.91;;;9.46;100.00
10145;BME280;5113;41.822;23.564;2023-04-26T13:02:50;-11193.38;;;9.37;100.00
10145;BME280;5113;41.822;23.564;2023-04-26T13:05:56;-11195.50;;;9.44;100.00
10145;BME280;5113;41.822;23.564;2023-04-26T13:09:04;-11198.87;;;9.56;100.00
10145;BME280;5113;41.822;23.564;2023-04-26T13:12:11;-11195.50;;;9.44;100.00
10145;BME280;5113;41.822;23.564;2023-04-26T13:15:18;-11187.47;;;9.15;100.00
10145;BME280;5113;41.822;23.564;2023-04-26T13:18:25;-11199.56;;;9.59;100.00
10145;BME280;5113;41.822;23.564;2023-04-26T13:21:31;-11201.25;;;9.65;100.00
10145;BME280;5113;41.822;23.564;2023-04-26T13:24:39;-11196.47;;;9.48;100.00
10145;BME280;5113;41.822;23.564;2023-04-26T13:27:45;-11203.22;;;9.72;100.00
10145;BME280;5113;41.822;23.564;2023-04-26T13:30:51;-11196.91;;;9.49;100.00
10145;BME280;5113;41.822;23.564;2023-04-26T13:33:58;-11187.75;;;9.16;100.00
10145;BME280;5113;41.822;23.564;2023-04-26T13:37:04;-11189.16;;;9.21;100.00
10145;BME280;5113;41.822;23.564;2023-04-26T13:40:12;-11197.31;;;9.51;100.00
10145;BME280;5113;41.822;23.564;2023-04-26T13:43:18;-11193.94;;;9.39;100.00
10145;BME280;5113;41.822;23.564;2023-04-26T13:46:24;-11188.31;;;9.18;100.00
10145;BME280;5113;41.822;23.564;2023-04-26T13:49:30;-11182.56;;;8.98;100.00
10145;BME280;5113;41.822;23.564;2023-04-26T13:52:36;-11168.66;;;8.47;100.00
10145;BME280;5113;41.822;23.564;2023-04-26T13:55:44;-11173.44;;;8.65;100.00
10145;BME280;5113;41.822;23.564;2023-04-26T13:58:53;-11176.78;;;8.77;100.00
10145;BME280;5113;41.822;23.564;2023-04-26T14:02:01;-11173.00;;;8.63;100.00
10145;BME280;5113;41.822;23.564;2023-04-26T14:05:26;-11176.38;;;8.75;100.00
10145;BME280;5113;41.822;23.564;2023-04-26T14:08:32;-11173.97;;;8.67;100.00
10145;BME280;5113;41.822;23.564;2023-04-26T14:11:40;-11183.97;;;9.03;100.00
10145;BME280;5113;41.822;23.564;2023-04-26T14:14:47;-11183.81;;;9.02;100.00
10145;BME280;5113;41.822;23.564;2023-04-26T14:17:53;-11183.41;;;9.01;100.00
10145;BME280;5113;41.822;23.564;2023-04-26T14:21:00;-11186.50;;;9.12;100.00
10145;BME280;5113;41.822;23.564;2023-04-26T14:24:06;-11191.13;;;9.28;100.00
10145;BME280;5113;41.822;23.564;2023-04-26T14:27:14;-11182.00;;;8.96;100.00
10145;BME280;5113;41.822;23.564;2023-04-26T14:30:20;-11183.97;;;9.03;100.00
10145;BME280;5113;41.822;23.564;2023-04-26T14:33:28;-11190.72;;;9.27;100.00
10145;BME280;5113;41.822;23.564;2023-04-26T14:36:34;-11191.13;;;9.28;100.00
10145;BME280;5113;41.822;23.564;2023-04-26T14:39:41;-11186.22;;;9.11;100.00
10145;BME280;5113;41.822;23.564;2023-04-26T14:42:49;-11192.81;;;9.35;100.00
10145;BME280;5113;41.822;23.564;2023-04-26T14:45:56;-11193.94;;;9.39;100.00
10145;BME280;5113;41.822;23.564;2023-04-26T14:49:02;-11197.03;;;9.50;100.00
10145;BME280;5113;41.822;23.564;2023-04-26T14:52:09;-11202.66;;;9.70;100.00
10145;BME280;5113;41.822;23.564;2023-04-26T14:55:20;-11210.81;;;10.00;100.00
10145;BME280;5113;41.822;23.564;2023-04-26T14:58:28;-11199.00;;;9.57;100.00
10145;BME280;5113;41.822;23.564;2023-04-26T15:01:34;-11212.22;;;10.05;100.00
10145;BME280;5113;41.822;23.564;2023-04-26T15:04:40;-11200.00;;;9.60;100.00
10145;BME280;5113;41.822;23.564;2023-04-26T15:07:47;-11200.41;;;9.62;100.00
10145;BME280;5113;41.822;23.564;2023-04-26T15:10:53;-11208.28;;;9.90;100.00
10145;BME280;5113;41.822;23.564;2023-04-26T15:14:01;-11198.87;;;9.56;100.00
10145;BME280;5113;41.822;23.564;2023-04-26T15:17:07;-11202.94;;;9.71;100.00
10145;BME280;5113;41.822;23.564;2023-04-26T15:20:14;-11207.44;;;9.87;100.00
10145;BME280;5113;41.822;23.564;2023-04-26T15:23:21;-11208.44;;;9.91;100.00
10145;BME280;5113;41.822;23.564;2023-04-26T15:26:27;-11198.03;;;9.53;100.00
10145;BME280;5113;41.822;23.564;2023-04-26T15:29:36;-11210.97;;;10.00;100.00
10145;BME280;5113;41.822;23.564;2023-04-26T15:32:46;-11211.38;;;10.02;100.00
10145;BME280;5113;41.822;23.564;2023-04-26T15:35:52;-11197.31;;;9.51;100.00
10145;BME280;5113;41.822;23.564;2023-04-26T15:38:59;-11203.66;;;9.74;100.00
10145;BME280;5113;41.822;23.564;2023-04-26T15:42:05;-11202.38;;;9.69;100.00
10145;BME280;5113;41.822;23.564;2023-04-26T15:45:13;-11194.50;;;9.41;100.00
10145;BME280;5113;41.822;23.564;2023-04-26T15:48:19;-11196.75;;;9.49;100.00
10145;BME280;5113;41.822;23.564;2023-04-26T15:51:25;-11202.81;;;9.71;100.00
10145;BME280;5113;41.822;23.564;2023-04-26T15:54:31;-11198.59;;;9.55;100.00
10145;BME280;5113;41.822;23.564;2023-04-26T15:57:40;-11197.59;;;9.52;100.00
10145;BME280;5113;41.822;23.564;2023-04-26T16:00:47;-11190.84;;;9.27;100.00
10145;BME280;5113;41.822;23.564;2023-04-26T16:03:53;-11191.56;;;9.30;100.00
10145;BME280;5113;41.822;23.564;2023-04-26T16:07:00;-11189.72;;;9.23;100.00
10145;BME280;5113;41.822;23.564;2023-04-26T16:10:08;-11187.47;;;9.15;100.00
10145;BME280;5113;41.822;23.564;2023-04-26T16:13:14;-11188.31;;;9.18;100.00
10145;BME280;5113;41.822;23.564;2023-04-26T16:16:22;-11188.03;;;9.17;100.00